createdAt,value
2019-06-07T00:02:13.282Z,2.60
2019-06-07T00:04:43.200Z,2.13
2019-06-07T00:07:14.327Z,2.23
2019-06-07T00:09:42.850Z,2.40
2019-06-07T00:12:12.758Z,2.10
2019-06-07T00:14:42.669Z,1.97
2019-06-07T00:17:14.061Z,2.33
2019-06-07T00:19:42.817Z,2.03
2019-06-07T00:22:18.376Z,1.97
2019-06-07T00:24:42.647Z,1.80
2019-06-07T00:27:12.802Z,2.30
2019-06-07T00:29:42.998Z,2.37
2019-06-07T00:32:14.295Z,2.43
2019-06-07T00:34:42.972Z,2.40
2019-06-07T00:37:12.712Z,2.50
2019-06-07T00:39:42.526Z,2.40
2019-06-07T00:42:13.508Z,2.77
2019-06-07T00:44:42.041Z,1.93
2019-06-07T00:47:10.976Z,2.30
2019-06-07T00:49:41.345Z,2.30
2019-06-07T00:52:42.148Z,2.50
2019-06-07T00:54:41.745Z,2.40
2019-06-07T00:57:12.267Z,2.40
2019-06-07T00:59:41.465Z,2.40
2019-06-07T01:02:28.321Z,2.20
2019-06-07T01:04:53.202Z,2.40
2019-06-07T01:07:24.318Z,2.60
2019-06-07T01:09:53.167Z,2.33
2019-06-07T01:12:23.895Z,2.70
2019-06-07T01:14:52.879Z,2.67
2019-06-07T01:17:39.195Z,2.63
2019-06-07T01:19:55.475Z,2.80
2019-06-07T01:22:28.884Z,2.63
2019-06-07T01:24:55.197Z,2.40
2019-06-07T01:27:25.527Z,2.47
2019-06-07T01:29:54.959Z,2.40
2019-06-07T01:35:04.606Z,2.70
2019-06-07T01:37:33.587Z,2.50
2019-06-07T01:40:02.790Z,2.20
2019-06-07T01:42:32.131Z,2.87
2019-06-07T01:45:01.088Z,2.50
2019-06-07T01:47:32.090Z,2.50
2019-06-07T01:50:00.780Z,2.70
2019-06-07T01:52:29.829Z,2.53
2019-06-07T01:54:59.224Z,2.73
2019-06-07T01:57:44.192Z,2.90
2019-06-07T01:59:59.023Z,2.53
2019-06-07T02:02:31.293Z,2.80
2019-06-07T02:04:59.077Z,2.53
2019-06-07T02:07:32.607Z,2.63
2019-06-07T02:09:58.701Z,2.90
2019-06-07T02:12:37.596Z,2.70
2019-06-07T02:14:58.275Z,2.63
2019-06-07T02:17:30.086Z,2.90
2019-06-07T02:19:58.916Z,2.77
2019-06-07T02:22:32.111Z,2.80
2019-06-07T02:25:34.480Z,2.87
2019-06-07T02:27:30.522Z,2.57
2019-06-07T02:30:00.297Z,2.67
2019-06-07T02:32:34.693Z,2.87
2019-06-07T02:35:00.962Z,2.60
2019-06-07T02:37:35.840Z,2.43
2019-06-07T02:40:01.719Z,2.43
2019-06-07T02:42:38.943Z,2.97
2019-06-07T02:45:01.671Z,2.60
2019-06-07T02:47:33.745Z,2.40
2019-06-07T02:50:01.904Z,2.03
2019-06-07T02:52:34.403Z,2.13
2019-06-07T02:55:01.623Z,2.60
2019-06-07T02:57:36.924Z,2.57
2019-06-07T03:00:27.045Z,2.50
2019-06-07T03:02:40.805Z,2.67
2019-06-07T03:05:05.464Z,2.47
2019-06-07T03:07:39.145Z,2.60
2019-06-07T03:10:08.213Z,2.50
2019-06-07T03:12:39.257Z,2.30
2019-06-07T03:15:09.676Z,2.43
2019-06-07T03:17:42.083Z,2.10
2019-06-07T03:20:12.999Z,2.50
2019-06-07T03:22:42.516Z,2.20
2019-06-07T03:25:11.987Z,2.50
2019-06-07T03:27:49.056Z,2.70
2019-06-07T03:32:47.196Z,2.30
2019-06-07T03:35:13.500Z,2.30
2019-06-07T03:37:43.140Z,2.53
2019-06-07T03:40:13.284Z,2.60
2019-06-07T03:42:42.190Z,2.37
2019-06-07T03:45:11.471Z,2.10
2019-06-07T03:47:42.648Z,2.53
2019-06-07T03:50:11.118Z,2.50
2019-06-07T03:52:41.490Z,2.57
2019-06-07T03:55:10.925Z,2.50
2019-06-07T03:58:29.098Z,2.70
2019-06-07T04:00:11.098Z,2.73
2019-06-07T04:02:42.049Z,3.00
2019-06-07T04:05:10.598Z,2.50
2019-06-07T04:07:44.167Z,2.60
2019-06-07T04:10:10.773Z,2.60
2019-06-07T04:12:43.772Z,2.47
2019-06-07T04:15:10.599Z,2.90
2019-06-07T04:17:55.910Z,3.10
2019-06-07T04:20:10.381Z,2.67
2019-06-07T04:22:42.110Z,2.77
2019-06-07T04:25:11.047Z,2.90
2019-06-07T04:27:41.031Z,2.97
2019-06-07T04:30:10.905Z,2.93
2019-06-07T04:32:44.687Z,2.73
2019-06-07T04:35:11.675Z,3.10
2019-06-07T04:37:42.171Z,3.40
2019-06-07T04:40:11.138Z,3.20
2019-06-07T04:42:44.819Z,3.40
2019-06-07T04:45:32.536Z,3.20
2019-06-07T04:47:42.634Z,3.80
2019-06-07T04:50:12.526Z,4.10
2019-06-07T04:52:44.917Z,4.13
2019-06-07T04:55:12.233Z,4.20
2019-06-07T04:57:43.070Z,3.70
2019-06-07T05:00:46.788Z,3.73
2019-06-07T05:02:43.809Z,3.80
2019-06-07T05:05:12.986Z,4.50
2019-06-07T05:07:46.021Z,3.60
2019-06-07T05:10:12.967Z,3.83
2019-06-07T05:12:44.328Z,3.47
2019-06-07T05:15:12.775Z,3.40
2019-06-07T05:17:43.475Z,4.07
2019-06-07T05:20:12.352Z,3.63
2019-06-07T05:22:45.049Z,3.90
2019-06-07T05:25:13.048Z,3.90
2019-06-07T05:27:46.600Z,3.73
2019-06-07T05:30:57.894Z,3.60
2019-06-07T05:32:46.075Z,4.20
2019-06-07T05:35:15.010Z,4.33
2019-06-07T05:37:45.974Z,3.90
2019-06-07T05:40:16.104Z,3.93
2019-06-07T05:42:46.699Z,3.20
2019-06-07T05:45:17.363Z,3.67
2019-06-07T05:47:50.747Z,3.43
2019-06-07T05:50:38.625Z,3.43
2019-06-07T05:52:47.788Z,3.70
2019-06-07T05:55:17.336Z,3.40
2019-06-07T05:57:50.924Z,3.87
2019-06-07T06:00:16.907Z,3.60
2019-06-07T06:03:03.612Z,3.77
2019-06-07T06:05:33.094Z,3.13
2019-06-07T06:07:50.953Z,3.50
2019-06-07T06:10:20.314Z,3.70
2019-06-07T06:12:51.868Z,3.50
2019-06-07T06:15:19.940Z,4.47
2019-06-07T06:17:53.495Z,3.47
2019-06-07T06:20:19.966Z,4.03
2019-06-07T06:22:51.142Z,3.60
2019-06-07T06:25:38.592Z,3.50
2019-06-07T06:28:12.498Z,3.57
2019-06-07T06:30:23.334Z,3.60
2019-06-07T06:32:57.723Z,3.57
2019-06-07T06:35:23.142Z,3.57
2019-06-07T06:37:53.436Z,3.13
2019-06-07T06:40:24.184Z,3.60
2019-06-07T06:42:53.559Z,4.30
2019-06-07T06:45:23.004Z,3.90
2019-06-07T06:47:52.178Z,3.63
2019-06-07T06:50:21.142Z,3.67
2019-06-07T06:52:54.223Z,2.77
2019-06-07T06:55:21.735Z,3.50
2019-06-07T06:57:52.990Z,4.13
2019-06-07T07:00:43.269Z,4.37
2019-06-07T07:03:39.570Z,4.70
2019-06-07T07:05:28.967Z,4.67
2019-06-07T07:07:57.691Z,3.50
2019-06-07T07:10:40.722Z,4.17
2019-06-07T07:13:10.094Z,4.40
2019-06-07T07:15:39.114Z,3.30
2019-06-07T07:18:09.071Z,3.83
2019-06-07T07:20:38.740Z,4.33
2019-06-07T07:23:08.205Z,4.03
2019-06-07T07:25:37.310Z,4.17
2019-06-07T07:28:06.590Z,4.00
2019-06-07T07:30:43.197Z,3.70
2019-06-07T07:33:12.498Z,4.33
2019-06-07T07:36:04.145Z,4.37
2019-06-07T07:38:12.430Z,3.70
2019-06-07T07:41:01.972Z,4.00
2019-06-07T07:43:12.402Z,3.73
2019-06-07T07:45:41.598Z,3.67
2019-06-07T07:48:17.567Z,3.53
2019-06-07T07:50:42.337Z,3.53
2019-06-07T07:53:11.464Z,3.37
2019-06-07T07:55:41.280Z,3.57
2019-06-07T07:58:10.279Z,3.10
2019-06-07T08:01:09.006Z,3.40
2019-06-07T08:03:09.927Z,3.50
2019-06-07T08:05:42.931Z,3.03
2019-06-07T08:08:09.788Z,3.00
2019-06-07T08:10:38.855Z,2.80
2019-06-07T08:13:24.684Z,2.77
2019-06-07T08:15:38.895Z,2.90
2019-06-07T08:18:07.904Z,2.90
2019-06-07T08:20:36.862Z,2.77
2019-06-07T08:23:05.790Z,2.63
2019-06-07T08:25:34.710Z,2.43
2019-06-07T08:28:03.941Z,2.67
2019-06-07T08:30:50.192Z,2.10
2019-06-07T08:33:24.615Z,2.40
2019-06-07T08:38:25.226Z,2.33
2019-06-07T08:40:35.535Z,2.30
2019-06-07T08:43:18.214Z,2.40
2019-06-07T08:45:35.697Z,2.40
2019-06-07T08:48:18.198Z,2.30
2019-06-07T08:50:35.515Z,2.40
2019-06-07T08:53:11.925Z,2.37
2019-06-07T08:55:35.183Z,2.60
2019-06-07T08:58:08.598Z,2.77
2019-06-07T09:00:45.961Z,2.50
2019-06-07T09:05:33.451Z,2.83
2019-06-07T09:08:28.314Z,2.63
2019-06-07T09:10:35.453Z,2.50
2019-06-07T09:13:10.838Z,2.30
2019-06-07T09:15:35.514Z,2.43
2019-06-07T09:18:38.397Z,2.30
2019-06-07T09:20:42.583Z,2.60
2019-06-07T09:23:16.840Z,2.57
2019-06-07T09:25:56.691Z,2.40
2019-06-07T09:28:19.341Z,2.50
2019-06-07T09:30:44.543Z,2.40
2019-06-07T09:33:13.453Z,2.70
2019-06-07T09:35:43.462Z,2.40
2019-06-07T09:38:24.191Z,2.67
2019-06-07T09:40:43.248Z,2.57
2019-06-07T09:43:59.809Z,2.63
2019-06-07T09:45:42.843Z,2.80
2019-06-07T09:48:16.073Z,2.57
2019-06-07T09:50:42.415Z,2.57
2019-06-07T09:55:49.825Z,2.60
2019-06-07T09:58:50.522Z,2.40
2019-06-07T10:00:49.479Z,2.50
2019-06-07T10:03:22.359Z,2.30
